createdAt,value
2017-12-04T00:01:03.687Z,6.98
2017-12-04T00:03:31.969Z,5.15
2017-12-04T00:06:00.272Z,6.80
2017-12-04T00:08:28.548Z,6.80
2017-12-04T00:10:56.060Z,5.52
2017-12-04T00:13:24.356Z,4.92
2017-12-04T00:15:52.636Z,5.45
2017-12-04T00:18:20.954Z,4.87
2017-12-04T00:20:49.233Z,6.87
2017-12-04T00:23:17.528Z,5.17
2017-12-04T00:25:45.803Z,6.33
2017-12-04T00:28:14.110Z,6.65
2017-12-04T00:30:42.385Z,4.60
2017-12-04T00:33:09.895Z,5.02
2017-12-04T00:35:38.189Z,5.40
2017-12-04T00:38:06.469Z,6.85
2017-12-04T00:40:34.768Z,5.97
2017-12-04T00:43:03.045Z,4.53
2017-12-04T00:45:31.343Z,6.27
2017-12-04T00:47:59.617Z,5.17
2017-12-04T00:50:27.919Z,4.80
2017-12-04T00:52:56.197Z,7.85
2017-12-04T00:55:24.505Z,6.67
2017-12-04T00:57:52.780Z,5.33
2017-12-04T01:00:21.064Z,8.00
2017-12-04T01:02:49.365Z,6.72
2017-12-04T01:05:17.680Z,6.77
2017-12-04T01:07:45.980Z,4.82
2017-12-04T01:10:14.252Z,7.13
2017-12-04T01:12:42.556Z,6.33
2017-12-04T01:15:10.831Z,9.00
2017-12-04T01:17:39.109Z,6.93
2017-12-04T01:20:07.420Z,10.92
2017-12-04T01:22:35.703Z,10.58
2017-12-04T01:25:04.003Z,8.55
2017-12-04T01:27:32.285Z,7.73
2017-12-04T01:30:00.592Z,7.43
2017-12-04T01:32:28.872Z,9.15
2017-12-04T01:34:57.182Z,8.90
2017-12-04T01:37:25.468Z,6.77
2017-12-04T01:39:53.781Z,8.37
2017-12-04T01:42:22.064Z,9.75
2017-12-04T01:44:50.380Z,10.45
2017-12-04T01:47:18.665Z,11.60
2017-12-04T01:49:46.943Z,11.80
2017-12-04T01:52:15.253Z,10.80
2017-12-04T01:54:43.532Z,8.82
2017-12-04T01:57:11.836Z,10.42
2017-12-04T01:59:40.115Z,8.58
2017-12-04T02:02:08.427Z,10.87
2017-12-04T02:04:43.057Z,9.85
2017-12-04T02:07:11.366Z,11.47
2017-12-04T02:09:39.644Z,8.75
2017-12-04T02:12:07.948Z,14.25
2017-12-04T02:14:36.229Z,7.40
2017-12-04T02:17:04.527Z,10.92
2017-12-04T02:19:32.807Z,8.67
2017-12-04T02:22:01.114Z,11.30
2017-12-04T02:24:29.392Z,8.47
2017-12-04T02:26:57.712Z,8.13
2017-12-04T02:29:25.988Z,10.80
2017-12-04T02:31:54.265Z,9.82
2017-12-04T02:34:22.564Z,12.63
2017-12-04T02:36:50.844Z,10.72
2017-12-04T02:39:19.148Z,9.38
2017-12-04T02:41:47.435Z,10.72
2017-12-04T02:44:15.740Z,9.22
2017-12-04T02:46:44.015Z,7.92
2017-12-04T02:49:12.302Z,8.07
2017-12-04T02:51:40.605Z,9.10
2017-12-04T02:54:08.883Z,12.85
2017-12-04T02:56:37.189Z,11.15
2017-12-04T02:59:05.473Z,8.72
2017-12-04T03:01:33.790Z,12.25
2017-12-04T03:04:02.075Z,11.30
2017-12-04T03:06:30.360Z,9.38
2017-12-04T03:08:58.664Z,10.87
2017-12-04T03:11:26.944Z,9.33
2017-12-04T03:13:55.252Z,13.20
2017-12-04T03:16:23.537Z,10.37
2017-12-04T03:18:51.849Z,9.40
2017-12-04T03:21:20.148Z,9.08
2017-12-04T03:23:48.432Z,8.73
2017-12-04T03:26:16.732Z,8.38
2017-12-04T03:28:45.019Z,10.32
2017-12-04T03:31:13.320Z,12.48
2017-12-04T03:33:41.596Z,8.28
2017-12-04T03:36:09.921Z,8.75
2017-12-04T03:38:38.212Z,10.63
2017-12-04T03:41:06.497Z,11.65
2017-12-04T03:43:34.806Z,7.45
2017-12-04T03:46:03.124Z,7.42
2017-12-04T03:48:31.438Z,8.53
2017-12-04T03:50:59.722Z,10.48
2017-12-04T03:53:28.050Z,6.73
2017-12-04T03:55:57.276Z,7.87
2017-12-04T03:58:25.569Z,8.73
2017-12-04T04:00:53.880Z,7.55
2017-12-04T04:03:22.164Z,8.77
2017-12-04T04:05:50.476Z,7.80
2017-12-04T04:08:18.756Z,7.40
2017-12-04T04:10:47.041Z,7.08
2017-12-04T04:13:14.577Z,7.47
2017-12-04T04:15:42.889Z,6.60
2017-12-04T04:18:11.222Z,11.95
2017-12-04T04:20:39.500Z,7.87
2017-12-04T04:23:07.777Z,7.00
2017-12-04T04:25:36.076Z,8.72
2017-12-04T04:28:04.356Z,8.72
2017-12-04T04:30:32.672Z,6.65
2017-12-04T04:33:00.948Z,7.30
2017-12-04T04:35:29.232Z,7.78
2017-12-04T04:37:57.536Z,8.82
2017-12-04T04:40:25.824Z,8.77
2017-12-04T04:42:54.148Z,5.87
2017-12-04T04:45:22.447Z,8.87
2017-12-04T04:47:50.723Z,5.38
2017-12-04T04:50:19.028Z,7.45
2017-12-04T04:52:47.346Z,10.32
2017-12-04T04:55:15.657Z,9.25
2017-12-04T04:57:43.931Z,7.38
2017-12-04T05:00:12.253Z,9.12
2017-12-04T05:02:40.541Z,6.58
2017-12-04T05:05:08.826Z,8.45
2017-12-04T05:07:37.127Z,7.45
2017-12-04T05:10:05.408Z,10.13
2017-12-04T05:12:33.711Z,6.80
2017-12-04T05:15:01.221Z,7.37
2017-12-04T05:17:29.528Z,7.15
2017-12-04T05:19:57.814Z,9.03
2017-12-04T05:22:25.333Z,10.13
2017-12-04T05:24:53.645Z,7.73
2017-12-04T05:27:21.929Z,7.83
2017-12-04T05:29:50.236Z,8.38
2017-12-04T05:32:18.513Z,9.73
2017-12-04T05:34:46.796Z,8.87
2017-12-04T05:37:15.096Z,11.95
2017-12-04T05:39:43.382Z,9.28
2017-12-04T05:42:11.688Z,8.52
2017-12-04T05:44:39.968Z,9.90
2017-12-04T05:47:08.284Z,11.15
2017-12-04T05:49:36.584Z,11.05
2017-12-04T05:52:04.870Z,10.50
2017-12-04T05:54:33.180Z,9.97
2017-12-04T05:57:01.469Z,8.12
2017-12-04T05:59:29.776Z,11.15
2017-12-04T06:01:58.057Z,10.62
2017-12-04T06:04:26.380Z,12.15
2017-12-04T06:06:54.667Z,11.62
2017-12-04T06:09:22.944Z,9.63
2017-12-04T06:11:51.253Z,10.77
2017-12-04T06:14:19.544Z,9.97
2017-12-04T06:16:47.851Z,12.97
2017-12-04T06:19:16.141Z,13.03
2017-12-04T06:21:44.452Z,12.78
2017-12-04T06:24:12.748Z,12.25
2017-12-04T06:26:41.037Z,15.85
2017-12-04T06:29:09.353Z,12.98
2017-12-04T06:31:37.649Z,15.35
2017-12-04T06:34:05.952Z,8.92
2017-12-04T06:36:34.240Z,12.73
2017-12-04T06:39:02.589Z,11.37
2017-12-04T06:41:30.877Z,12.22
2017-12-04T06:43:59.165Z,14.38
2017-12-04T06:46:27.472Z,12.77
2017-12-04T06:48:55.784Z,14.57
2017-12-04T06:51:24.091Z,13.40
2017-12-04T06:53:52.383Z,13.07
2017-12-04T06:56:20.711Z,13.63
2017-12-04T06:58:48.992Z,8.90
2017-12-04T07:01:17.277Z,10.55
2017-12-04T07:03:45.582Z,12.38
2017-12-04T07:06:13.872Z,12.00
2017-12-04T07:08:42.172Z,10.08
2017-12-04T07:11:10.471Z,12.50
2017-12-04T07:13:38.796Z,8.80
2017-12-04T07:16:07.072Z,8.87
2017-12-04T07:18:35.370Z,12.72
2017-12-04T07:21:03.675Z,9.55
2017-12-04T07:23:31.970Z,11.33
2017-12-04T07:26:00.276Z,10.70
2017-12-04T07:28:28.557Z,7.72
2017-12-04T07:30:56.874Z,7.73
2017-12-04T07:33:25.160Z,7.82
2017-12-04T07:35:53.444Z,6.37
2017-12-04T07:38:21.761Z,8.55
2017-12-04T07:40:50.040Z,5.45
2017-12-04T07:43:18.368Z,5.73
2017-12-04T07:45:46.653Z,6.02
2017-12-04T07:48:14.932Z,7.42
2017-12-04T07:50:43.236Z,4.05
2017-12-04T07:53:11.515Z,5.05
2017-12-04T07:55:39.815Z,4.53
2017-12-04T07:58:08.108Z,6.88
2017-12-04T08:00:36.397Z,5.07
2017-12-04T08:03:04.708Z,4.80
2017-12-04T08:05:32.988Z,4.07
2017-12-04T08:08:01.288Z,6.02
2017-12-04T08:10:29.572Z,6.05
2017-12-04T08:12:57.897Z,6.00
2017-12-04T08:15:26.175Z,6.70
2017-12-04T08:17:54.458Z,7.85
2017-12-04T08:20:22.769Z,5.28
2017-12-04T08:22:51.064Z,5.40
2017-12-04T08:25:19.364Z,7.18
2017-12-04T08:27:47.652Z,4.13
2017-12-04T08:30:15.980Z,4.35
2017-12-04T08:32:44.273Z,4.98
2017-12-04T08:35:12.547Z,4.85
2017-12-04T08:37:40.852Z,4.52
2017-12-04T08:40:09.144Z,6.58
2017-12-04T08:42:37.447Z,6.67
2017-12-04T08:45:05.748Z,5.10
2017-12-04T08:47:34.073Z,6.48
2017-12-04T08:50:02.358Z,7.28
2017-12-04T08:52:30.640Z,9.05
2017-12-04T08:54:58.941Z,8.13
2017-12-04T08:57:27.228Z,7.37
2017-12-04T08:59:55.539Z,9.18
2017-12-04T09:02:23.843Z,8.62
2017-12-04T09:04:51.400Z,8.23
2017-12-04T09:07:19.690Z,9.67
2017-12-04T09:09:47.981Z,10.67
2017-12-04T09:12:16.292Z,19.95
2017-12-04T09:14:44.580Z,10.37
2017-12-04T09:17:12.881Z,7.62
2017-12-04T09:19:41.181Z,6.85
2017-12-04T09:22:09.514Z,9.70
2017-12-04T09:24:37.804Z,8.72
2017-12-04T09:27:06.091Z,14.98
2017-12-04T09:29:34.395Z,8.08
2017-12-04T09:32:02.676Z,8.55
2017-12-04T09:34:30.979Z,6.63
2017-12-04T09:36:59.278Z,6.32
2017-12-04T09:39:27.608Z,6.28
2017-12-04T09:41:55.895Z,5.83
2017-12-04T09:44:24.180Z,6.38
2017-12-04T09:46:52.481Z,6.93
2017-12-04T09:49:20.765Z,8.05
2017-12-04T09:51:49.069Z,5.32
2017-12-04T09:54:17.352Z,9.60
2017-12-04T09:56:45.689Z,4.32
2017-12-04T09:59:13.968Z,6.27
2017-12-04T10:01:42.258Z,5.05
2017-12-04T10:04:10.564Z,7.75
2017-12-04T10:06:38.848Z,10.37
2017-12-04T10:09:07.158Z,9.53
2017-12-04T10:11:35.449Z,8.10
2017-12-04T10:14:03.778Z,11.55
2017-12-04T10:16:32.065Z,9.30
2017-12-04T10:19:00.358Z,8.42
2017-12-04T10:21:28.664Z,7.13
2017-12-04T10:23:56.952Z,7.00
2017-12-04T10:26:25.269Z,7.63
2017-12-04T10:28:53.557Z,8.07
2017-12-04T10:31:21.864Z,13.20
2017-12-04T10:33:50.162Z,8.43
2017-12-04T10:36:18.484Z,8.67
2017-12-04T10:38:46.777Z,11.17
2017-12-04T10:41:15.091Z,9.00
2017-12-04T10:43:43.380Z,11.95
2017-12-04T10:46:11.715Z,8.43
2017-12-04T10:48:39.992Z,13.87
2017-12-04T10:51:08.301Z,11.27
2017-12-04T10:53:36.587Z,11.23
2017-12-04T10:56:04.900Z,12.30
2017-12-04T10:58:33.189Z,12.88
2017-12-04T11:01:01.503Z,20.12
2017-12-04T11:03:30.012Z,16.60
2017-12-04T11:05:58.329Z,15.28
2017-12-04T11:08:26.625Z,19.83
2017-12-04T11:10:54.943Z,21.30
2017-12-04T11:13:23.238Z,17.80
2017-12-04T11:15:51.548Z,26.70
2017-12-04T11:18:19.840Z,16.22
2017-12-04T11:20:48.156Z,18.53
2017-12-04T11:23:16.448Z,19.98
2017-12-04T11:25:44.771Z,17.23
2017-12-04T11:28:13.060Z,21.95
2017-12-04T11:30:40.613Z,18.48
2017-12-04T11:33:08.904Z,13.35
2017-12-04T11:35:37.211Z,15.88
2017-12-04T11:38:05.495Z,19.88
2017-12-04T11:40:33.809Z,18.23
2017-12-04T11:43:02.125Z,23.12
2017-12-04T11:45:45.588Z,20.07
2017-12-04T11:48:13.884Z,17.20
2017-12-04T11:50:42.224Z,18.23
2017-12-04T11:53:10.513Z,16.67
2017-12-04T11:55:38.800Z,17.18
2017-12-04T11:58:07.111Z,21.23
2017-12-04T12:00:35.420Z,23.77
2017-12-04T12:03:03.736Z,20.88
2017-12-04T12:05:32.024Z,17.50
2017-12-04T12:08:00.340Z,22.02
2017-12-04T12:10:28.623Z,17.43
2017-12-04T12:12:56.940Z,25.30
2017-12-04T12:15:25.236Z,21.37
2017-12-04T12:17:53.557Z,22.72
2017-12-04T12:20:21.857Z,18.02
2017-12-04T12:22:50.181Z,16.83
2017-12-04T12:25:18.481Z,18.33
2017-12-04T12:27:46.796Z,23.08
2017-12-04T12:30:15.085Z,38.13
2017-12-04T12:32:43.420Z,18.62
2017-12-04T12:35:11.717Z,26.88
2017-12-04T12:37:40.038Z,23.98
2017-12-04T12:40:08.338Z,33.07
2017-12-04T12:42:36.656Z,36.02
2017-12-04T12:45:04.185Z,27.63
2017-12-04T12:47:32.507Z,23.57
2017-12-04T12:50:00.805Z,21.98
2017-12-04T12:52:29.119Z,24.10
2017-12-04T12:54:57.409Z,20.58
2017-12-04T12:57:25.728Z,33.17
2017-12-04T12:59:54.020Z,19.62
2017-12-04T13:02:22.340Z,21.08
2017-12-04T13:04:50.634Z,24.42
2017-12-04T13:07:18.951Z,20.10
2017-12-04T13:09:47.249Z,19.73
2017-12-04T13:12:15.592Z,21.07
2017-12-04T13:14:43.897Z,22.33
2017-12-04T13:17:12.203Z,21.08
2017-12-04T13:19:40.500Z,23.45
2017-12-04T13:22:08.827Z,27.12
2017-12-04T13:24:38.076Z,27.68
2017-12-04T13:27:06.427Z,23.50
2017-12-04T13:29:34.719Z,20.63
2017-12-04T13:32:14.924Z,22.07
2017-12-04T13:34:55.502Z,35.30
2017-12-04T13:37:23.837Z,22.12
2017-12-04T13:39:52.127Z,22.93
2017-12-04T13:42:20.418Z,21.18
2017-12-04T13:44:48.743Z,20.02
2017-12-04T13:47:17.040Z,21.92
2017-12-04T13:49:45.348Z,29.28
2017-12-04T13:52:13.645Z,23.33
2017-12-04T13:54:41.961Z,19.10
2017-12-04T13:57:10.260Z,19.78
2017-12-04T13:59:38.570Z,18.88
2017-12-04T14:02:06.873Z,19.02
2017-12-04T14:04:34.433Z,25.65
2017-12-04T14:07:02.732Z,29.10
2017-12-04T14:09:31.060Z,26.43
2017-12-04T14:11:59.352Z,24.02
2017-12-04T14:14:27.675Z,23.82
2017-12-04T14:16:55.968Z,23.63
2017-12-04T14:19:24.284Z,24.00
2017-12-04T14:21:52.572Z,25.12
2017-12-04T14:24:20.882Z,25.58
2017-12-04T14:26:49.173Z,27.67
2017-12-04T14:29:17.497Z,24.78
2017-12-04T14:31:45.797Z,21.12
2017-12-04T14:34:14.112Z,24.67
2017-12-04T14:36:42.412Z,25.83
2017-12-04T14:39:16.918Z,26.80
2017-12-04T14:41:45.216Z,27.05
2017-12-04T14:44:13.545Z,19.15
2017-12-04T14:46:41.853Z,25.88
2017-12-04T14:49:10.177Z,20.42
2017-12-04T14:51:38.485Z,31.65
2017-12-04T14:54:06.796Z,23.02
2017-12-04T14:56:35.100Z,23.82
2017-12-04T14:59:03.408Z,28.58
2017-12-04T15:01:31.696Z,26.55
2017-12-04T15:04:00.012Z,28.92
2017-12-04T15:06:28.311Z,32.17
2017-12-04T15:08:56.617Z,29.98
2017-12-04T15:11:24.906Z,32.80
2017-12-04T15:13:53.201Z,28.15
2017-12-04T15:16:21.512Z,40.20
2017-12-04T15:18:49.801Z,35.90
2017-12-04T15:21:18.116Z,24.88
2017-12-04T15:23:46.408Z,20.35
2017-12-04T15:26:14.724Z,43.05
2017-12-04T15:28:43.007Z,61.62
2017-12-04T15:31:11.322Z,34.67
2017-12-04T15:33:39.620Z,38.58
2017-12-04T15:36:07.929Z,30.48
2017-12-04T15:38:36.215Z,25.20
2017-12-04T15:41:03.757Z,47.63
2017-12-04T15:43:32.052Z,34.17
2017-12-04T15:46:00.373Z,34.03
2017-12-04T15:48:28.656Z,34.93
2017-12-04T15:50:56.965Z,27.63
2017-12-04T15:53:25.263Z,32.70
2017-12-04T15:55:53.575Z,28.12
2017-12-04T15:58:21.860Z,30.62
2017-12-04T16:00:50.172Z,32.90
2017-12-04T16:03:18.478Z,34.25
2017-12-04T16:05:46.793Z,32.38
2017-12-04T16:08:15.089Z,27.33
2017-12-04T16:10:42.636Z,25.52
2017-12-04T16:13:10.928Z,34.58
2017-12-04T16:15:39.240Z,32.45
2017-12-04T16:18:07.552Z,24.63
2017-12-04T16:20:35.859Z,24.77
2017-12-04T16:23:04.148Z,31.23
2017-12-04T16:25:32.466Z,45.83
2017-12-04T16:28:00.792Z,43.62
2017-12-04T16:30:29.120Z,60.62
2017-12-04T16:32:57.431Z,36.33
2017-12-04T16:35:25.744Z,38.75
2017-12-04T16:37:54.218Z,34.85
2017-12-04T16:40:22.533Z,42.07
2017-12-04T16:42:50.843Z,34.12
2017-12-04T16:45:19.160Z,41.47
2017-12-04T16:47:47.463Z,32.75
2017-12-04T16:50:15.803Z,33.20
2017-12-04T16:52:44.100Z,31.88
2017-12-04T16:55:12.393Z,43.48
2017-12-04T16:57:40.699Z,34.42
2017-12-04T17:00:08.988Z,41.57
2017-12-04T17:02:37.296Z,33.37
2017-12-04T17:05:05.593Z,37.08
2017-12-04T17:07:33.908Z,35.12
2017-12-04T17:10:02.209Z,36.57
2017-12-04T17:12:30.528Z,36.05
2017-12-04T17:14:58.828Z,32.72
2017-12-04T17:17:27.132Z,26.62
2017-12-04T17:19:55.424Z,29.05
2017-12-04T17:22:23.737Z,35.67
2017-12-04T17:24:52.033Z,30.10
2017-12-04T17:27:20.347Z,28.75
2017-12-04T17:29:52.290Z,27.37
2017-12-04T17:32:20.614Z,30.37
2017-12-04T17:34:48.922Z,29.33
2017-12-04T17:37:17.233Z,40.20
2017-12-04T17:39:45.525Z,33.07
2017-12-04T17:42:13.834Z,37.07
2017-12-04T17:44:42.135Z,34.75
2017-12-04T17:47:10.465Z,32.83
2017-12-04T17:49:38.761Z,26.47
2017-12-04T17:52:07.120Z,31.13
2017-12-04T17:54:36.155Z,32.92
2017-12-04T17:57:04.482Z,32.47
2017-12-04T17:59:32.772Z,31.58
2017-12-04T18:02:01.100Z,30.32
2017-12-04T18:04:29.396Z,33.55
2017-12-04T18:06:57.712Z,31.45
2017-12-04T18:09:26.021Z,34.07
2017-12-04T18:11:54.332Z,36.98
2017-12-04T18:14:22.628Z,29.52
2017-12-04T18:16:50.945Z,30.10
2017-12-04T18:19:19.246Z,38.57
2017-12-04T18:21:47.556Z,28.55
2017-12-04T18:24:15.844Z,32.33
2017-12-04T18:26:44.161Z,30.45
2017-12-04T18:29:12.451Z,32.93
2017-12-04T18:31:40.773Z,30.95
2017-12-04T18:34:09.081Z,35.07
2017-12-04T18:36:37.397Z,31.07
2017-12-04T18:39:05.703Z,30.73
2017-12-04T18:41:33.992Z,25.78
2017-12-04T18:44:02.305Z,28.67
2017-12-04T18:46:30.608Z,32.50
2017-12-04T18:48:58.192Z,31.60
2017-12-04T18:51:26.497Z,33.07
2017-12-04T18:53:54.815Z,40.17
2017-12-04T18:56:23.113Z,50.32
2017-12-04T18:58:51.425Z,35.22
2017-12-04T19:01:19.717Z,51.87
2017-12-04T19:03:48.029Z,39.60
2017-12-04T19:06:16.328Z,35.50
2017-12-04T19:08:44.640Z,45.87
2017-12-04T19:11:12.936Z,38.15
2017-12-04T19:13:41.252Z,48.58
2017-12-04T19:16:09.540Z,42.25
2017-12-04T19:18:37.861Z,37.52
2017-12-04T19:21:06.157Z,38.78
2017-12-04T19:23:34.608Z,38.27
2017-12-04T19:26:02.916Z,43.37
2017-12-04T19:28:31.281Z,42.13
2017-12-04T19:30:59.581Z,36.53
2017-12-04T19:33:27.923Z,42.30
2017-12-04T19:35:56.230Z,44.12
2017-12-04T19:38:24.588Z,41.18
2017-12-04T19:40:52.879Z,48.40
2017-12-04T19:43:21.235Z,37.73
2017-12-04T19:45:49.533Z,39.73
2017-12-04T19:48:17.855Z,44.15
2017-12-04T19:50:46.167Z,38.83
2017-12-04T19:53:14.493Z,53.17
2017-12-04T19:55:42.789Z,47.13
2017-12-04T19:58:11.100Z,37.33
2017-12-04T20:00:39.403Z,39.03
2017-12-04T20:03:06.953Z,42.37
2017-12-04T20:05:35.252Z,33.67
2017-12-04T20:08:03.560Z,42.88
2017-12-04T20:10:31.857Z,35.73
2017-12-04T20:13:00.148Z,40.10
2017-12-04T20:15:28.465Z,38.23
2017-12-04T20:17:56.768Z,40.40
2017-12-04T20:20:25.085Z,33.75
2017-12-04T20:22:53.380Z,37.10
2017-12-04T20:25:21.698Z,37.12
2017-12-04T20:27:49.988Z,37.42
2017-12-04T20:30:18.301Z,36.70
2017-12-04T20:32:46.587Z,33.53
2017-12-04T20:35:14.908Z,40.52
2017-12-04T20:37:43.226Z,32.95
2017-12-04T20:40:10.772Z,35.90
2017-12-04T20:42:39.064Z,41.50
2017-12-04T20:45:07.377Z,34.40
2017-12-04T20:47:35.667Z,37.05
2017-12-04T20:50:03.989Z,35.37
2017-12-04T20:52:32.297Z,39.75
2017-12-04T20:55:00.622Z,37.23
2017-12-04T20:57:28.921Z,37.57
2017-12-04T20:59:57.233Z,40.32
2017-12-04T21:02:25.528Z,51.22
2017-12-04T21:04:53.853Z,42.97
2017-12-04T21:07:22.153Z,44.43
2017-12-04T21:10:02.439Z,38.12
2017-12-04T21:12:30.733Z,40.45
2017-12-04T21:15:10.896Z,43.52
2017-12-04T21:17:39.184Z,45.42
2017-12-04T21:20:07.502Z,47.35
2017-12-04T21:22:35.800Z,41.10
2017-12-04T21:25:04.113Z,43.53
2017-12-04T21:27:32.412Z,41.18
2017-12-04T21:30:00.758Z,41.10
2017-12-04T21:32:29.060Z,43.37
2017-12-04T21:34:57.356Z,38.98
2017-12-04T21:37:25.669Z,34.77
2017-12-04T21:39:53.965Z,40.98
2017-12-04T21:42:22.281Z,40.38
2017-12-04T21:44:50.564Z,35.07
2017-12-04T21:47:18.897Z,37.03
2017-12-04T21:49:47.197Z,41.33
2017-12-04T21:52:15.488Z,38.93
2017-12-04T21:54:43.800Z,45.82
2017-12-04T21:57:12.096Z,41.07
2017-12-04T21:59:40.408Z,48.65
2017-12-04T22:02:08.709Z,45.62
2017-12-04T22:04:37.048Z,39.40
2017-12-04T22:07:05.340Z,46.67
2017-12-04T22:09:33.632Z,36.03
2017-12-04T22:12:01.949Z,44.97
2017-12-04T22:14:30.240Z,41.33
2017-12-04T22:16:58.572Z,42.28
2017-12-04T22:19:26.877Z,39.47
2017-12-04T22:21:55.173Z,43.73
2017-12-04T22:24:23.490Z,42.87
2017-12-04T22:26:51.791Z,43.35
2017-12-04T22:29:20.128Z,42.32
2017-12-04T22:31:48.422Z,35.67
2017-12-04T22:34:16.704Z,39.12
2017-12-04T22:36:45.012Z,35.50
2017-12-04T22:39:13.304Z,38.78
2017-12-04T22:41:41.618Z,33.15
2017-12-04T22:44:09.917Z,36.57
2017-12-04T22:46:38.248Z,43.48
2017-12-04T22:49:06.548Z,36.65
2017-12-04T22:51:34.840Z,44.57
2017-12-04T22:54:03.155Z,35.97
2017-12-04T22:56:31.450Z,35.12
2017-12-04T22:58:59.771Z,35.95
2017-12-04T23:01:28.976Z,40.60
2017-12-04T23:03:57.308Z,48.12
2017-12-04T23:06:25.605Z,45.38
2017-12-04T23:08:53.904Z,39.63
2017-12-04T23:11:22.216Z,38.07
2017-12-04T23:13:50.507Z,31.43
2017-12-04T23:16:18.821Z,36.47
2017-12-04T23:18:47.108Z,33.93
2017-12-04T23:21:15.448Z,34.12
2017-12-04T23:23:43.796Z,36.17
2017-12-04T23:26:12.053Z,35.48
2017-12-04T23:28:40.372Z,37.03
2017-12-04T23:31:08.668Z,39.67
2017-12-04T23:33:36.985Z,37.48
2017-12-04T23:36:05.282Z,33.07
2017-12-04T23:38:33.620Z,35.48
2017-12-04T23:41:01.916Z,32.57
2017-12-04T23:43:30.207Z,31.08
2017-12-04T23:45:58.530Z,38.33
2017-12-04T23:48:26.824Z,32.37
2017-12-04T23:50:55.136Z,35.33
2017-12-04T23:53:23.434Z,29.83
2017-12-04T23:55:51.763Z,28.70
2017-12-04T23:58:20.053Z,26.78
